createdAt,value
2019-04-26T00:00:42.893Z,2.37
2019-04-26T00:03:16.245Z,2.33
2019-04-26T00:06:08.993Z,2.63
2019-04-26T00:26:15.567Z,2.00
2019-04-26T00:29:03.386Z,2.03
2019-04-26T00:31:54.029Z,2.03
2019-04-26T00:34:24.439Z,1.93
2019-04-26T00:36:54.681Z,2.10
2019-04-26T00:39:45.640Z,1.80
2019-04-26T00:42:16.546Z,1.40
2019-04-26T00:44:59.918Z,1.80
2019-04-26T00:48:09.193Z,1.50
2019-04-26T00:59:45.530Z,1.43
2019-04-26T01:02:46.113Z,1.57
2019-04-26T01:10:57.258Z,1.90
2019-04-26T01:13:58.231Z,1.20
2019-04-26T01:16:30.116Z,1.03
2019-04-26T01:22:01.132Z,1.73
2019-04-26T01:24:35.583Z,1.10
2019-04-26T07:58:21.017Z,2.80
2019-04-26T08:01:04.012Z,2.80
2019-04-26T08:06:52.278Z,2.50
2019-04-26T08:09:46.210Z,2.50
2019-04-26T08:18:49.914Z,2.87
2019-04-26T08:21:52.121Z,3.63
2019-04-26T08:24:33.634Z,3.10
2019-04-26T08:30:24.692Z,2.80
2019-04-26T08:36:07.605Z,3.07
2019-04-26T08:44:59.708Z,2.63
2019-04-26T08:50:46.083Z,2.00
2019-04-26T08:53:27.420Z,2.23
2019-04-26T08:56:20.338Z,2.17
2019-04-26T08:59:28.785Z,2.23
2019-04-26T09:13:51.348Z,3.60
2019-04-26T09:16:50.196Z,3.70
2019-04-26T09:19:12.912Z,4.07
2019-04-26T09:22:22.572Z,4.33
2019-04-26T09:30:42.409Z,4.13
2019-04-26T09:33:45.631Z,4.20
2019-04-26T09:36:54.658Z,3.60
2019-04-26T09:43:05.053Z,3.80
2019-04-26T09:48:38.315Z,3.20
2019-04-26T09:51:09.671Z,3.37
2019-04-26T09:53:43.457Z,3.57
2019-04-26T09:56:12.029Z,3.30
2019-04-26T09:58:42.472Z,3.30
2019-04-26T10:01:13.052Z,3.70
2019-04-26T10:03:43.746Z,2.80
2019-04-26T10:06:15.084Z,3.07
2019-04-26T10:08:47.105Z,3.53
2019-04-26T10:11:21.925Z,3.40
2019-04-26T10:14:00.567Z,3.27
2019-04-26T10:16:46.505Z,3.43
2019-04-26T10:19:22.327Z,3.20
2019-04-26T10:21:53.076Z,3.50
2019-04-26T10:24:23.360Z,3.57
2019-04-26T10:26:55.475Z,3.80
2019-04-26T10:29:26.732Z,3.70
2019-04-26T10:31:58.164Z,4.00
2019-04-26T10:34:28.654Z,4.10
2019-04-26T10:37:01.559Z,3.90
2019-04-26T10:39:36.914Z,3.97
2019-04-26T10:42:09.130Z,3.93
2019-04-26T10:44:41.003Z,3.50
2019-04-26T10:47:11.265Z,4.13
2019-04-26T10:49:49.309Z,3.63
2019-04-26T10:52:49.672Z,3.10
2019-04-26T10:55:37.199Z,3.50
2019-04-26T10:58:17.135Z,3.43
2019-04-26T11:00:52.748Z,2.83
2019-04-26T11:03:21.934Z,3.20
2019-04-26T11:05:53.664Z,3.20
2019-04-26T11:08:25.056Z,4.20
2019-04-26T11:10:58.324Z,4.10
2019-04-26T11:13:29.873Z,4.30
2019-04-26T11:16:02.482Z,4.77
2019-04-26T11:18:34.937Z,5.30
2019-04-26T11:24:19.431Z,5.20
2019-04-26T11:30:20.365Z,6.43
2019-04-26T11:33:22.760Z,7.03
2019-04-26T11:35:52.955Z,6.40
2019-04-26T11:41:28.035Z,6.83
2019-04-26T11:47:54.337Z,6.70
2019-04-26T11:50:52.198Z,7.87
2019-04-26T11:53:23.659Z,7.30
2019-04-26T11:55:54.596Z,8.67
2019-04-26T11:58:24.578Z,7.43
2019-04-26T12:00:59.452Z,8.63
2019-04-26T12:03:30.654Z,6.80
2019-04-26T12:06:10.783Z,6.77
2019-04-26T12:08:55.289Z,5.70
2019-04-26T12:11:34.114Z,5.90
2019-04-26T12:13:59.479Z,4.90
2019-04-26T12:16:29.878Z,4.87
2019-04-26T12:19:00.079Z,5.00
2019-04-26T12:21:33.731Z,5.20
2019-04-26T12:24:02.552Z,4.77
2019-04-26T12:26:42.278Z,4.90
2019-04-26T12:29:05.653Z,5.60
2019-04-26T12:31:35.775Z,4.90
2019-04-26T12:34:05.911Z,5.00
2019-04-26T12:36:36.921Z,5.67
2019-04-26T12:39:09.906Z,5.93
2019-04-26T12:41:40.955Z,5.13
2019-04-26T12:44:15.138Z,5.80
2019-04-26T12:47:05.145Z,6.27
2019-04-26T12:49:35.593Z,6.40
2019-04-26T12:52:07.177Z,6.23
2019-04-26T12:54:38.975Z,6.00
2019-04-26T12:57:09.452Z,6.80
2019-04-26T12:59:44.388Z,6.87
2019-04-26T13:02:16.529Z,6.77
2019-04-26T13:04:45.545Z,6.30
2019-04-26T13:07:23.885Z,6.23
2019-04-26T13:10:26.734Z,6.70
2019-04-26T13:13:07.304Z,6.67
2019-04-26T13:16:08.406Z,6.03
2019-04-26T13:18:45.124Z,7.10
2019-04-26T13:21:16.796Z,6.37
2019-04-26T13:23:48.297Z,6.80
2019-04-26T13:26:19.150Z,7.23
2019-04-26T13:28:52.476Z,7.10
2019-04-26T13:31:23.353Z,7.83
2019-04-26T13:34:06.252Z,7.10
2019-04-26T13:36:39.643Z,7.83
2019-04-26T13:39:17.904Z,7.63
2019-04-26T13:42:02.179Z,6.70
2019-04-26T13:44:41.617Z,6.87
2019-04-26T13:47:34.134Z,6.90
2019-04-26T13:50:16.010Z,7.30
2019-04-26T13:52:48.864Z,8.03
2019-04-26T13:55:18.983Z,7.30
2019-04-26T13:57:50.799Z,7.00
2019-04-26T14:00:25.752Z,7.20
2019-04-26T14:02:54.773Z,7.07
2019-04-26T14:05:23.374Z,6.67
2019-04-26T14:07:56.023Z,7.00
2019-04-26T14:10:31.868Z,6.63
2019-04-26T14:13:04.102Z,6.80
2019-04-26T14:15:35.295Z,7.07
2019-04-26T14:18:08.646Z,6.70
2019-04-26T14:20:41.449Z,6.57
2019-04-26T14:23:36.917Z,6.80
2019-04-26T14:26:19.797Z,7.43
2019-04-26T14:28:54.216Z,7.40
2019-04-26T14:31:24.466Z,7.43
2019-04-26T14:33:54.814Z,6.93
2019-04-26T14:36:26.699Z,7.90
2019-04-26T14:39:05.614Z,7.87
2019-04-26T14:41:30.837Z,6.97
2019-04-26T14:44:15.361Z,7.07
2019-04-26T14:46:48.959Z,7.20
2019-04-26T14:49:19.293Z,7.10
2019-04-26T14:51:53.906Z,6.97
2019-04-26T14:54:23.586Z,7.10
2019-04-26T14:56:54.953Z,6.40
2019-04-26T14:59:45.534Z,6.60
2019-04-26T15:02:36.367Z,6.13
2019-04-26T15:05:29.346Z,5.73
2019-04-26T15:08:03.905Z,5.53
2019-04-26T15:10:45.684Z,5.07
2019-04-26T15:13:19.996Z,3.40
2019-04-26T15:15:46.021Z,2.70
2019-04-26T15:18:16.269Z,2.33
2019-04-26T15:20:57.088Z,2.30
2019-04-26T15:23:32.874Z,2.37
2019-04-26T15:26:09.140Z,3.30
2019-04-26T15:28:43.677Z,2.87
2019-04-26T15:31:13.093Z,2.70
2019-04-26T15:33:48.858Z,2.70
2019-04-26T15:36:18.045Z,2.60
2019-04-26T15:38:49.580Z,2.10
2019-04-26T15:41:47.084Z,2.27
2019-04-26T15:44:33.470Z,1.70
2019-04-26T15:47:34.346Z,1.87
2019-04-26T15:50:19.092Z,2.30
2019-04-26T15:52:54.479Z,2.63
2019-04-26T15:55:26.027Z,2.40
2019-04-26T15:58:02.664Z,2.20
2019-04-26T16:00:35.927Z,2.63
2019-04-26T16:03:08.203Z,3.50
2019-04-26T16:05:40.162Z,2.47
2019-04-26T16:08:18.545Z,2.57
2019-04-26T16:10:53.309Z,3.23
2019-04-26T16:13:24.318Z,3.47
2019-04-26T16:15:59.320Z,3.40
2019-04-26T16:18:30.122Z,3.03
2019-04-26T16:21:01.974Z,3.20
2019-04-26T16:23:41.124Z,2.93
2019-04-26T16:26:14.305Z,3.40
2019-04-26T16:29:18.468Z,3.40
2019-04-26T16:32:16.925Z,3.67
2019-04-26T16:34:47.665Z,3.07
2019-04-26T16:37:28.572Z,3.90
2019-04-26T16:39:59.411Z,3.30
2019-04-26T16:42:31.936Z,3.67
2019-04-26T16:45:07.942Z,3.40
2019-04-26T16:47:48.767Z,3.50
2019-04-26T16:50:31.363Z,3.40
2019-04-26T16:53:00.248Z,3.23
2019-04-26T16:55:53.267Z,3.60
2019-04-26T16:58:45.399Z,3.60
2019-04-26T17:01:53.886Z,3.80
2019-04-26T17:07:43.724Z,4.13
2019-04-26T17:13:36.219Z,4.30
2019-04-26T17:16:44.733Z,4.73
2019-04-26T17:27:44.207Z,5.10
2019-04-26T17:30:26.039Z,5.30
2019-04-26T17:33:06.186Z,5.40
2019-04-26T17:36:17.731Z,5.87
2019-04-26T17:39:10.978Z,5.33
2019-04-26T17:41:50.673Z,4.40
2019-04-26T17:47:32.996Z,5.17
2019-04-26T17:50:26.242Z,4.37
2019-04-26T17:59:10.366Z,3.47
2019-04-26T18:01:57.289Z,3.13
2019-04-26T18:04:34.403Z,3.43
2019-04-26T18:07:33.738Z,2.73
2019-04-26T18:09:43.963Z,2.60
2019-04-26T18:12:11.991Z,2.43
2019-04-26T18:14:42.701Z,2.07
2019-04-26T18:17:40.248Z,2.37
2019-04-26T18:20:37.391Z,2.07
2019-04-26T18:23:18.571Z,1.67
2019-04-26T18:25:49.018Z,1.40
2019-04-26T18:28:22.765Z,1.50
2019-04-26T18:31:01.181Z,1.80
2019-04-26T18:33:35.688Z,1.67
2019-04-26T18:36:07.735Z,1.80
2019-04-26T18:38:37.657Z,1.70
2019-04-26T18:41:29.898Z,1.70
2019-04-26T18:44:35.382Z,1.73
2019-04-26T18:47:28.551Z,1.57
2019-04-26T18:56:21.820Z,2.00
2019-04-26T19:01:48.303Z,2.27
2019-04-26T19:19:26.028Z,2.60
2019-04-26T19:25:22.945Z,2.77
2019-04-26T19:28:09.662Z,2.63
2019-04-26T19:33:47.719Z,2.40
2019-04-26T19:36:59.848Z,2.97
2019-04-26T19:39:35.048Z,3.50
2019-04-26T19:42:05.981Z,3.40
2019-04-26T19:44:37.470Z,3.07
2019-04-26T19:47:28.190Z,3.33
2019-04-26T19:50:17.158Z,3.40
2019-04-26T19:53:16.441Z,4.33
2019-04-26T20:07:28.225Z,3.67
2019-04-26T20:16:23.296Z,4.00
2019-04-26T20:22:28.517Z,4.13
2019-04-26T20:25:08.316Z,3.57
2019-04-26T20:34:01.615Z,4.70
2019-04-26T20:36:47.586Z,4.90
2019-04-26T20:42:05.165Z,5.13
2019-04-26T20:45:08.493Z,8.17
2019-04-26T20:54:03.917Z,5.47
2019-04-26T20:56:35.550Z,5.23
2019-04-26T20:59:06.936Z,5.40
2019-04-26T21:01:37.110Z,4.93
2019-04-26T21:10:25.733Z,5.43
2019-04-26T21:13:15.283Z,5.47
2019-04-26T21:28:29.057Z,4.63
2019-04-26T21:31:31.147Z,4.60
2019-04-26T21:34:12.547Z,4.10
2019-04-26T21:37:11.333Z,4.67
2019-04-26T21:40:23.242Z,4.53
2019-04-26T22:04:16.629Z,4.00
2019-04-26T22:07:28.126Z,3.90
2019-04-26T22:15:59.434Z,3.60
2019-04-26T22:18:50.525Z,3.50
2019-04-26T22:21:29.841Z,3.83
2019-04-26T22:24:10.603Z,3.57
2019-04-26T22:26:44.541Z,4.47
2019-04-26T22:29:16.664Z,4.17
2019-04-26T22:31:45.893Z,3.47
2019-04-26T22:34:16.270Z,3.87
2019-04-26T22:36:46.674Z,3.70
2019-04-26T22:39:20.618Z,3.90
2019-04-26T22:41:51.257Z,3.80
2019-04-26T22:44:40.736Z,3.43
2019-04-26T22:47:33.923Z,3.90
2019-04-26T22:50:02.240Z,4.47
2019-04-26T22:52:33.693Z,3.77
2019-04-26T22:55:06.663Z,4.30
2019-04-26T22:57:37.203Z,4.53
2019-04-26T23:00:13.056Z,3.87
2019-04-26T23:02:45.713Z,3.67
2019-04-26T23:05:15.964Z,3.63
2019-04-26T23:07:46.115Z,4.13
2019-04-26T23:10:17.314Z,4.80
2019-04-26T23:13:09.336Z,3.90
2019-04-26T23:15:55.352Z,4.33
2019-04-26T23:18:46.422Z,4.33
2019-04-26T23:21:35.779Z,4.33
2019-04-26T23:24:11.516Z,4.27
2019-04-26T23:26:41.701Z,4.07
2019-04-26T23:29:16.243Z,4.13
2019-04-26T23:31:45.812Z,4.23
2019-04-26T23:34:15.890Z,4.63
2019-04-26T23:36:49.062Z,4.40
2019-04-26T23:39:20.477Z,4.90
2019-04-26T23:41:50.424Z,4.80
2019-04-26T23:44:20.480Z,4.80
2019-04-26T23:46:50.538Z,4.77
2019-04-26T23:49:20.642Z,4.83
2019-04-26T23:51:50.744Z,4.47
2019-04-26T23:54:20.747Z,5.07
2019-04-26T23:56:55.686Z,4.30
2019-04-26T23:59:22.443Z,4.60
